NY/NJ Local METAR Reports

 

KNYC - NYC/Central Park, NY, USA
Distance from Hoboken: NE 4mi, 7km
Updated: 05/24/2019 2:51am
Clear
Clear
 Wind from WSW
Wind: WSW 8 mph , 13 km/h
Temperature: 68°F , 20°C
Dew Point: 64°F , 18°C
Humidity: 88%
Barometer: 29.82 inHg , 1009.8 hPa
Clouds: Clear
Visibility: 10 miles , 16 km
2019/05/24 06:51 KNYC 240651Z AUTO 25007KT 10SM CLR 20/18 A2982 RMK AO2 SLP087 T02000183 $
KEWR - Newark, NJ, USA
Distance from Hoboken: WSW 8mi, 13km
Updated: 05/24/2019 2:51am
Partly cloudy
Partly cloudy
 Wind from WSW
Wind: WSW 8 mph , 13 km/h
Temperature: 68°F , 20°C
Dew Point: 64°F , 18°C
Humidity: 88%
Barometer: 29.79 inHg , 1008.8 hPa
Clouds: Partly cloudy
Visibility: 10 miles , 16 km
Cloud details: Partly cloudy 25000 ft
2019/05/24 06:51 KEWR 240651Z 24007KT 10SM SCT250 20/18 A2979 RMK AO2 SLP089 T02000183 $
 
KLGA - NYC/La Guardia, NY, USA
Distance from Hoboken: ENE 8mi, 13km
Updated: 05/24/2019 2:51am
Partly cloudy
Partly cloudy
 Wind from W
Wind: W 16 mph , 26 km/h, Gust: 26 mph , 43 km/h
Temperature: 72°F , 22°C
Dew Point: 63°F , 17°C
Humidity: 73%
Barometer: 29.78 inHg , 1008.5 hPa
Clouds: Partly cloudy
Visibility: 10 miles , 16 km
Cloud details: Few Clouds 20000 ft
Partly cloudy 25000 ft
2019/05/24 06:51 KLGA 240651Z 27014G23KT 10SM FEW200 SCT250 22/17 A2978 RMK AO2 SLP084 T02220172 $
KTEB - Teterboro, NJ, USA
Distance from Hoboken: N 9mi, 14km
Updated: 05/24/2019 2:51am
Clear
Clear
 Wind from SW
Wind: SW 3 mph , 6 km/h
Temperature: 66°F , 19°C
Dew Point: 63°F , 17°C
Humidity: 88%
Barometer: 29.78 inHg , 1008.5 hPa
Clouds: Clear
Visibility: 10 miles , 16 km
2019/05/24 06:51 KTEB 240651Z 22003KT 10SM CLR 19/17 A2978 RMK AO2 SLP083 T01940172
 
KJFK - NYC/Jfk Arpt, NY, USA
Distance from Hoboken: ESE 16mi, 25km
Updated: 05/24/2019 2:51am
Mostly cloudy
Mostly cloudy
 Wind from WSW
Wind: WSW 12 mph , 19 km/h
Temperature: 68°F , 20°C
Dew Point: 66°F , 19°C
Humidity: 94%
Barometer: 29.80 inHg , 1009.1 hPa
Clouds: Mostly cloudy
Visibility: 10 miles , 16 km
Cloud details: Mostly cloudy 25000 ft
2019/05/24 06:51 KJFK 240651Z 25010KT 10SM BKN250 20/19 A2980 RMK AO2 SLP090 T02000194
KCDW - Caldwell, NJ, USA
Distance from Hoboken: NW 16mi, 26km
Updated: 05/24/2019 2:53am
Clear
Clear
 Wind from calm
Wind: Calm
Temperature: 68°F , 20°C
Dew Point: 66°F , 19°C
Humidity: 94%
Barometer: 29.80 inHg , 1009.1 hPa
Clouds: Clear
Visibility: 9 miles , 14 km
2019/05/24 06:53 KCDW 240653Z AUTO 00000KT 9SM CLR 20/19 A2980 RMK AO2 SLP096 T02000189
 
KMMU - Morristown Muni, NJ, USA
Distance from Hoboken: W 20mi, 33km
Updated: 05/24/2019 2:35am
Clear
Clear
 Wind from WSW
Wind: WSW 3 mph , 6 km/h
Temperature: 66°F , 19°C
Dew Point: 66°F , 19°C
Humidity: 100%
Barometer: 29.80 inHg , 1009.1 hPa
Clouds: Clear
Visibility: 10 miles , 16 km
2019/05/24 06:35 KMMU 240635Z AUTO 24003KT 10SM CLR 19/19 A2980 RMK AO2
KHPN - White Plains, NY, USA
Distance from Hoboken: NE 28mi, 46km
Updated: 05/24/2019 1:56am
Mist, Clear
Mist, Clear
 Wind from W
Wind: W 8 mph , 13 km/h
Temperature: 66°F , 19°C
Dew Point: 64°F , 18°C
Humidity: 94%
Barometer: 29.77 inHg , 1008.1 hPa
Summary: Mist
Clouds: Clear
Visibility: 6 miles , 10 km
2019/05/24 05:56 KHPN 240556Z 27007KT 6SM BR CLR 19/18 A2977 RMK AO2 SLP078 60009 T01890178 10206 20167 56016
 
KFRG - Farmingdale, NY, USA
Distance from Hoboken: E 32mi, 52km
Updated: 05/24/2019 2:53am
Clear
Clear
 Wind from W
Wind: W 8 mph , 13 km/h
Temperature: 66°F , 19°C
Dew Point: 64°F , 18°C
Humidity: 94%
Barometer: 29.78 inHg , 1008.5 hPa
Clouds: Clear
Visibility: 10 miles , 16 km
2019/05/24 06:53 KFRG 240653Z AUTO 27007KT 10SM CLR 19/18 A2978 RMK AO2 SLP084 T01890178
KSMQ - Somerville, NJ, USA
Distance from Hoboken: WSW 34mi, 55km
Updated: 05/24/2019 2:53am
Clear
Clear
 Wind from varies
Wind: varies 3 mph , 6 km/h
Temperature: 68°F , 20°C
Dew Point: 63°F , 17°C
Humidity: 83%
Barometer: 29.80 inHg , 1009.1 hPa
Clouds: Clear
Visibility: 10 miles , 16 km
2019/05/24 06:53 KSMQ 240653Z AUTO VRB03KT 10SM CLR 20/17 A2980 RMK AO2 SLP091 T02000172
 
KBLM - Belmar/Farmdale, NJ, USA
Distance from Hoboken: S 40mi, 64km
Updated: 05/24/2019 2:56am
Clear
Clear
 Wind from WSW
Wind: WSW 10 mph , 17 km/h
Temperature: 68°F , 20°C
Dew Point: 64°F , 18°C
Humidity: 88%
Barometer: 29.83 inHg , 1010.2 hPa
Clouds: Clear
Visibility: 10 miles , 16 km
2019/05/24 06:56 KBLM 240656Z AUTO 25009KT 10SM CLR 20/18 A2983 RMK AO2 SLP100 T02000183
K12N - Andover, NJ, USA
Distance from Hoboken: WNW 41mi, 67km
Updated: 05/24/2019 2:54am

 Wind from calm
Wind: Calm
Temperature: 63°F , 17°C
Dew Point: 61°F , 16°C
Humidity: 94%
Barometer: 29.83 inHg , 1010.2 hPa
2019/05/24 06:54 K12N 240654Z AUTO 00000KT 17/16 A2983 RMK AO1 SLP095 T01720161
 
KFWN - Sussex, NJ, USA
Distance from Hoboken: NW 45mi, 72km
Updated: 05/24/2019 2:53am
Mist, Partly cloudy
Mist, Partly cloudy
 Wind from calm
Wind: Calm
Temperature: 61°F , 16°C
Dew Point: 61°F , 16°C
Humidity: 100%
Barometer: 29.82 inHg , 1009.8 hPa
Summary: Mist
Clouds: Partly cloudy
Visibility: 1 1/4 miles , 2 km
Cloud details: Partly cloudy 200 ft
2019/05/24 06:53 KFWN 240653Z AUTO 00000KT 1 1/4SM BR SCT002 16/16 A2982 RMK AO2 SLP094 T01610156 $
KISP - Islip, NY, USA
Distance from Hoboken: E 49mi, 79km
Updated: 05/24/2019 1:56am
Clear
Clear
 Wind from WSW
Wind: WSW 7 mph , 11 km/h
Temperature: 64°F , 18°C
Dew Point: 63°F , 17°C
Humidity: 94%
Barometer: 29.78 inHg , 1008.5 hPa
Clouds: Clear
Visibility: 10 miles , 16 km
2019/05/24 05:56 KISP 240556Z AUTO 25006KT 10SM CLR 18/17 A2978 RMK AO2 SLP082 T01780172 10183 20156 56017